Información del aeropuerto LDSP

Información de pista
Pista 05 Longitud 8366 ft Anchura 148 ft
Elevación 70 ft Umbral 0 ft Rumbo 53
Pista 23 Longitud 8366 ft Anchura 148 ft
Elevación 50 ft Umbral 525 ft Rumbo 233
Frecuencias del aeropuerto
Tipo APP Nombre APP Frecuencia 120.875 MHZ
Tipo INFO Nombre INFO Frecuencia 128.675 MHZ
Tipo TWR Nombre TWR Frecuencia 124.675 MHZ
Radioayudas del aeropuerto
Tipo NDB Nombre Drvenik Frecuencia 418 KHZ
Tipo VOR-DME Nombre Split Frecuencia 115700 KHZ
Tipo NDB Nombre Trogir Frecuencia 378 KHZ
Información meteorológica del aeropuerto y NOTAM
ADDS - METARS form results

(0311 UTC 23 January 2022)
Data provider http://aviationweather.gov/metar/data/
 
METAR text: LDSP 230300Z AUTO 31008KT CAVOK 02/M09 Q1029 NOSIG
Conditions at: LDSP (SPLIT/KASTEL STA, HR) observed 0300 UTC 23 January 2022
Temperature: 2.0°C (36°F)
Dewpoint: -9.0°C (16°F) [RH = 44%]
Pressure (altimeter): 30.38 inches Hg (1029.0 mb)
Winds: from the NW (310 degrees) at 9 MPH (8 knots; 4.1 m/s)
Visibility: 6 or more miles (10+ km)
Ceiling: ceiling and visibility are OK
Clouds: unknown
Weather: no significant weather observed at this time

METAR text: LDSP 230230Z AUTO 29003KT 260V330 CAVOK 01/M11 Q1029
Conditions at: LDSP (SPLIT/KASTEL STA, HR) observed 0230 UTC 23 January 2022
Temperature: 1.0°C (34°F)
Dewpoint: -11.0°C (12°F) [RH = 40%]
Pressure (altimeter): 30.38 inches Hg (1029.0 mb)
Winds: from the WNW (290 degrees) at 3 MPH (3 knots; 1.5 m/s)
Visibility: 6 or more miles (10+ km)
Ceiling: ceiling and visibility are OK
Clouds: unknown
Weather: no significant weather observed at this time

Forecast for: LDSP (SPLIT/KASTEL STA, HR)
Text: TAF LDSP 222325Z 2300/2400 35008KT 9999 FEW050 TX10/2313Z TN00/2305Z
Forecast period: 0000 UTC 23 January 2022 to 0000 UTC 24 January 2022
Forecast type: FROM: standard forecast or significant change
Winds: from the N (350 degrees) at 9 MPH (8 knots; 4.1 m/s)
Visibility: 6 or more miles (10+ km)
Ceiling: at least 12,000 feet AGL
Clouds: few clouds at 5000 feet AGL
Weather: no significant weather forecast for this period
Text: TEMPO 2312/2318 35012KT
Forecast period: 1200 to 1800 UTC 23 January 2022
Forecast type: TEMPORARY: The following changes expected for less than half the time period
Winds: from the N (350 degrees) at 14 MPH (12 knots; 6.2 m/s)
Visibility: missing
Ceiling: unknown
Clouds: missing
Weather: no significant weather forecast for this period